Terminal Aerodrome Forecast
Issued by NWS

Home | Current Version | Previous Version | Text Only | Print | Product List | Glossary On
Versions: 1 2 3 4 5 6 7 8 9 10 11 12
176
FTUS46 KSGX 071736
TAFPSP
TAF
KPSP 071736Z 0718/0818 32011KT P6SM SCT200
     FM072000 VRB06KT P6SM FEW100 FEW200=

USA.gov is the U.S. government's official web portal to all federal, state and local government web resources and services.